Terminal Aerodrome Forecast
Issued by NWS Wilmington, OH

Current Version | Previous Version | Text Only | Print | Product List | Glossary Off
Versions: 1 2 3 4 5 6 7 8 9 10 11 12 13 14 15 16 17 18 19 20 21 22 23

000
FTUS41 KILN 180532
TAFCVG
TAF
KCVG 180532Z 1806/1912 18004KT P6SM SCT090 BKN250
     FM181200 20004KT P6SM BKN090
     FM181800 20004KT P6SM VCSH SCT040 BKN090
     FM190000 00000KT P6SM BKN090
     FM191000 10003KT P6SM BKN050=

USA.gov is the U.S. government's official web portal to all federal, state and local government web resources and services.